PORT of BASTIA

Valsts: France Valsts: France (FR)
Platums / garums: 42.69867° / 9.4534155° Rādīt kartē Rādīt kartē
Vietējais laiks:  UTC +2
UN/LOCODE: FRBIA
Gaidāmās pienākšanas: 4

Nesenās pienākšanas un atiešanas


Kuģa nosaukums
Pienākšana (UTC)
Pienākšana (LT)
Atiešana (UTC)
Atiešana (LT)
Vessel Type: Kravas kuģi  CAPO NERO 2014-10-21 18:44:00 2014-10-21 20:44:00 2014-10-22 19:12:00 2014-10-22 21:12:00
Vessel Type: Velkoņi, loču kuteri  PILOTINE H 2014-10-22 18:54:00 2014-10-22 20:54:00
Vessel Type: Velkoņi, loču kuteri  PILOTINE H 2014-10-22 17:19:00 2014-10-22 19:19:00 2014-10-22 18:53:00 2014-10-22 20:53:00
Vessel Type: Pasažieru kuģi  MEGA EXPRESS FIVE 2014-10-22 17:19:00 2014-10-22 19:19:00 2014-10-22 18:52:00 2014-10-22 20:52:00
Vessel Type: Velkoņi, loču kuteri  PILOTINE H 2014-10-22 10:00:00 2014-10-22 12:00:00 2014-10-22 16:37:00 2014-10-22 18:37:00
Vessel Type: Pasažieru kuģi  PIANA 2014-10-22 04:52:00 2014-10-22 06:52:00 2014-10-22 16:35:00 2014-10-22 18:35:00
Vessel Type: Pasažieru kuģi  MEGA EXPRESS FOUR 2014-10-22 05:20:00 2014-10-22 07:20:00 2014-10-22 10:10:00 2014-10-22 12:10:00
Vessel Type: Velkoņi, loču kuteri  PILOTINE H 2014-10-22 06:30:00 2014-10-22 08:30:00 2014-10-22 09:57:00 2014-10-22 11:57:00
Vessel Type: Velkoņi, loču kuteri  PILOTINE H 2014-10-22 05:00:00 2014-10-22 07:00:00 2014-10-22 06:27:00 2014-10-22 08:27:00
Vessel Type: Pasažieru kuģi  MEGA EXPRESS FIVE 2014-10-22 04:20:00 2014-10-22 06:20:00 2014-10-22 06:27:00 2014-10-22 08:27:00

Gaidāmās pienākšanas


Kuģa nosaukums
Scheduled Arrival (UTC)
Paredzētā pienākšana (vietējais laiks)
Plānotā pienākšana (UTC)
Plānotais pienākšanas laiks (vietējais laiks)
Vessel Type: Tankkuģi  PHILIPPINE 2014-10-22 04:00:00 2014-10-22 06:00:00 2014-10-24 02:40:00 2014-10-24 04:40:00
Vessel Type: Pasažieru kuģi  MEGA EXPRESS 2014-10-22 05:00:00 2014-10-22 07:00:00 2014-10-23 19:29:00 2014-10-23 21:29:00
Vessel Type: Pasažieru kuģi  PASCAL PAOLI 2014-10-23 04:40:00 2014-10-23 06:40:00
Vessel Type: Pasažieru kuģi  MEGA EXPRESS FOUR 2014-10-23 05:00:00 2014-10-23 07:00:00 2014-12-10 19:30:00 2014-12-10 20:30:00

Wind Forecast


    
Laiks (UTC)
Ātrums
DirectionDirection
Temperature
2014-10-23 03:00:00 24 knots 323° 17°C
2014-10-23 06:00:00 23 knots 311° 18°C
2014-10-23 09:00:00 26 knots 320° 18°C
2014-10-23 12:00:00 27 knots 335° 19°C
2014-10-23 15:00:00 24 knots 355° 19°C
2014-10-23 18:00:00 19 knots 351° 20°C
2014-10-23 21:00:00 17 knots 347° 20°C
2014-10-24 00:00:00 15 knots 352° 19°C
2014-10-24 03:00:00 14 knots 340° 19°C
2014-10-24 06:00:00 12 knots 350° 19°C
2014-10-24 09:00:00 9 knots 33° 20°C
2014-10-24 12:00:00 9 knots 77° 20°C
2014-10-24 15:00:00 8 knots 72° 20°C
2014-10-24 18:00:00 9 knots 84° 20°C
2014-10-24 21:00:00 12 knots 102° 19°C
2014-10-25 00:00:00 11 knots 119° 18°C
2014-10-25 03:00:00 12 knots 130° 17°C